sensor_id;sensor_type;location;lat;lon;timestamp;P1;durP1;ratioP1;P2;durP2;ratioP2
73266;SDS011;61495;53.400;7.608;2024-03-02T00:02:55;10.85;;;5.93;;
73266;SDS011;61495;53.400;7.608;2024-03-02T00:06:20;12.60;;;6.43;;
73266;SDS011;61495;53.400;7.608;2024-03-02T00:13:14;10.90;;;6.38;;
73266;SDS011;61495;53.400;7.608;2024-03-02T00:16:38;12.15;;;5.88;;
73266;SDS011;61495;53.400;7.608;2024-03-02T00:20:02;11.75;;;5.88;;
73266;SDS011;61495;53.400;7.608;2024-03-02T00:23:31;11.10;;;5.75;;
73266;SDS011;61495;53.400;7.608;2024-03-02T00:26:58;9.90;;;4.85;;
73266;SDS011;61495;53.400;7.608;2024-03-02T00:34:04;10.93;;;5.32;;
73266;SDS011;61495;53.400;7.608;2024-03-02T00:37:35;10.15;;;5.68;;
73266;SDS011;61495;53.400;7.608;2024-03-02T00:41:08;10.63;;;5.15;;
73266;SDS011;61495;53.400;7.608;2024-03-02T00:44:38;10.30;;;5.18;;
73266;SDS011;61495;53.400;7.608;2024-03-02T00:48:04;12.27;;;5.80;;
73266;SDS011;61495;53.400;7.608;2024-03-02T00:51:30;10.40;;;5.53;;
73266;SDS011;61495;53.400;7.608;2024-03-02T00:54:57;9.95;;;5.45;;
73266;SDS011;61495;53.400;7.608;2024-03-02T00:58:21;10.65;;;4.82;;
73266;SDS011;61495;53.400;7.608;2024-03-02T01:01:47;9.05;;;4.90;;
73266;SDS011;61495;53.400;7.608;2024-03-02T01:05:11;8.82;;;4.82;;
73266;SDS011;61495;53.400;7.608;2024-03-02T01:08:41;12.52;;;5.95;;
73266;SDS011;61495;53.400;7.608;2024-03-02T01:12:08;8.50;;;4.47;;
73266;SDS011;61495;53.400;7.608;2024-03-02T01:15:33;10.73;;;5.68;;
73266;SDS011;61495;53.400;7.608;2024-03-02T01:18:57;10.63;;;4.97;;
73266;SDS011;61495;53.400;7.608;2024-03-02T01:22:21;9.98;;;5.20;;
73266;SDS011;61495;53.400;7.608;2024-03-02T01:25:47;10.48;;;5.97;;
73266;SDS011;61495;53.400;7.608;2024-03-02T01:29:11;9.32;;;4.70;;
73266;SDS011;61495;53.400;7.608;2024-03-02T01:32:37;8.50;;;4.68;;
73266;SDS011;61495;53.400;7.608;2024-03-02T01:36:01;7.13;;;4.53;;
73266;SDS011;61495;53.400;7.608;2024-03-02T01:39:25;8.63;;;4.35;;
73266;SDS011;61495;53.400;7.608;2024-03-02T01:42:55;8.82;;;4.75;;
73266;SDS011;61495;53.400;7.608;2024-03-02T01:46:19;10.95;;;4.68;;
73266;SDS011;61495;53.400;7.608;2024-03-02T01:49:43;7.95;;;4.53;;
73266;SDS011;61495;53.400;7.608;2024-03-02T01:53:07;7.32;;;3.95;;
73266;SDS011;61495;53.400;7.608;2024-03-02T01:59:57;7.80;;;4.32;;
73266;SDS011;61495;53.400;7.608;2024-03-02T02:03:21;9.48;;;4.15;;
73266;SDS011;61495;53.400;7.608;2024-03-02T02:06:52;8.52;;;4.35;;
73266;SDS011;61495;53.400;7.608;2024-03-02T02:10:20;8.90;;;4.22;;
73266;SDS011;61495;53.400;7.608;2024-03-02T02:13:45;9.82;;;4.85;;
73266;SDS011;61495;53.400;7.608;2024-03-02T02:17:17;9.10;;;4.68;;
73266;SDS011;61495;53.400;7.608;2024-03-02T02:20:41;7.15;;;4.03;;
73266;SDS011;61495;53.400;7.608;2024-03-02T02:24:08;8.68;;;4.55;;
73266;SDS011;61495;53.400;7.608;2024-03-02T02:27:32;10.52;;;4.47;;
73266;SDS011;61495;53.400;7.608;2024-03-02T02:30:56;6.60;;;3.83;;
73266;SDS011;61495;53.400;7.608;2024-03-02T02:34:51;11.00;;;4.22;;
73266;SDS011;61495;53.400;7.608;2024-03-02T02:38:38;6.68;;;3.88;;
73266;SDS011;61495;53.400;7.608;2024-03-02T02:42:30;8.88;;;3.97;;
73266;SDS011;61495;53.400;7.608;2024-03-02T02:46:20;8.48;;;4.38;;
73266;SDS011;61495;53.400;7.608;2024-03-02T02:50:02;7.88;;;4.38;;
73266;SDS011;61495;53.400;7.608;2024-03-02T02:53:46;7.65;;;3.53;;
73266;SDS011;61495;53.400;7.608;2024-03-02T03:01:01;7.13;;;3.50;;
73266;SDS011;61495;53.400;7.608;2024-03-02T03:04:41;7.13;;;3.58;;
73266;SDS011;61495;53.400;7.608;2024-03-02T03:08:08;7.10;;;3.50;;
73266;SDS011;61495;53.400;7.608;2024-03-02T03:11:32;7.43;;;4.35;;
73266;SDS011;61495;53.400;7.608;2024-03-02T03:14:56;7.75;;;3.50;;
73266;SDS011;61495;53.400;7.608;2024-03-02T03:18:21;9.82;;;4.28;;
73266;SDS011;61495;53.400;7.608;2024-03-02T03:21:45;7.05;;;3.38;;
73266;SDS011;61495;53.400;7.608;2024-03-02T03:25:09;5.60;;;3.35;;
73266;SDS011;61495;53.400;7.608;2024-03-02T03:28:33;6.30;;;3.80;;
73266;SDS011;61495;53.400;7.608;2024-03-02T03:32:07;9.35;;;3.97;;
73266;SDS011;61495;53.400;7.608;2024-03-02T03:35:31;6.40;;;3.70;;
73266;SDS011;61495;53.400;7.608;2024-03-02T03:38:55;6.90;;;3.60;;
73266;SDS011;61495;53.400;7.608;2024-03-02T03:42:19;7.90;;;3.95;;
73266;SDS011;61495;53.400;7.608;2024-03-02T03:45:43;6.18;;;3.45;;
73266;SDS011;61495;53.400;7.608;2024-03-02T03:49:08;9.05;;;3.85;;
73266;SDS011;61495;53.400;7.608;2024-03-02T03:52:33;7.07;;;3.58;;
73266;SDS011;61495;53.400;7.608;2024-03-02T03:55:57;8.20;;;4.07;;
73266;SDS011;61495;53.400;7.608;2024-03-02T03:59:21;7.45;;;3.83;;
73266;SDS011;61495;53.400;7.608;2024-03-02T04:02:45;6.03;;;3.75;;
73266;SDS011;61495;53.400;7.608;2024-03-02T04:06:10;7.15;;;3.50;;
73266;SDS011;61495;53.400;7.608;2024-03-02T04:09:39;8.02;;;3.65;;
73266;SDS011;61495;53.400;7.608;2024-03-02T04:13:03;7.25;;;3.88;;
73266;SDS011;61495;53.400;7.608;2024-03-02T04:16:31;8.15;;;4.10;;
73266;SDS011;61495;53.400;7.608;2024-03-02T04:23:21;8.15;;;4.03;;
73266;SDS011;61495;53.400;7.608;2024-03-02T04:26:45;7.43;;;3.83;;
73266;SDS011;61495;53.400;7.608;2024-03-02T04:30:09;11.43;;;4.55;;
73266;SDS011;61495;53.400;7.608;2024-03-02T04:33:33;9.63;;;4.40;;
73266;SDS011;61495;53.400;7.608;2024-03-02T04:36:58;7.03;;;4.25;;
73266;SDS011;61495;53.400;7.608;2024-03-02T04:40:37;8.73;;;4.45;;
73266;SDS011;61495;53.400;7.608;2024-03-02T04:44:01;8.70;;;4.35;;
73266;SDS011;61495;53.400;7.608;2024-03-02T04:47:25;7.90;;;4.80;;
73266;SDS011;61495;53.400;7.608;2024-03-02T04:50:49;9.48;;;5.60;;
73266;SDS011;61495;53.400;7.608;2024-03-02T04:54:13;10.35;;;4.75;;
73266;SDS011;61495;53.400;7.608;2024-03-02T04:57:55;8.40;;;4.47;;
73266;SDS011;61495;53.400;7.608;2024-03-02T05:01:19;9.13;;;4.75;;
73266;SDS011;61495;53.400;7.608;2024-03-02T05:04:43;9.60;;;4.50;;
73266;SDS011;61495;53.400;7.608;2024-03-02T05:08:07;8.73;;;4.70;;
73266;SDS011;61495;53.400;7.608;2024-03-02T05:11:31;9.95;;;5.40;;
73266;SDS011;61495;53.400;7.608;2024-03-02T05:15:01;8.98;;;5.05;;
73266;SDS011;61495;53.400;7.608;2024-03-02T05:18:25;9.77;;;4.68;;
73266;SDS011;61495;53.400;7.608;2024-03-02T05:21:50;9.10;;;4.28;;
73266;SDS011;61495;53.400;7.608;2024-03-02T05:25:14;11.38;;;5.35;;
73266;SDS011;61495;53.400;7.608;2024-03-02T05:28:38;7.85;;;4.38;;
73266;SDS011;61495;53.400;7.608;2024-03-02T05:32:02;8.77;;;5.22;;
73266;SDS011;61495;53.400;7.608;2024-03-02T05:35:26;9.80;;;5.20;;
73266;SDS011;61495;53.400;7.608;2024-03-02T05:38:55;9.65;;;5.05;;
73266;SDS011;61495;53.400;7.608;2024-03-02T05:42:19;10.63;;;5.25;;
73266;SDS011;61495;53.400;7.608;2024-03-02T05:45:45;11.40;;;5.35;;
73266;SDS011;61495;53.400;7.608;2024-03-02T05:49:09;10.55;;;5.00;;
73266;SDS011;61495;53.400;7.608;2024-03-02T05:52:33;8.65;;;5.30;;
73266;SDS011;61495;53.400;7.608;2024-03-02T05:55:57;10.68;;;5.53;;
73266;SDS011;61495;53.400;7.608;2024-03-02T05:59:21;9.48;;;4.40;;
73266;SDS011;61495;53.400;7.608;2024-03-02T06:02:45;11.55;;;5.78;;
73266;SDS011;61495;53.400;7.608;2024-03-02T06:06:09;10.00;;;5.45;;
73266;SDS011;61495;53.400;7.608;2024-03-02T06:09:33;10.00;;;5.03;;
73266;SDS011;61495;53.400;7.608;2024-03-02T06:12:57;11.40;;;5.68;;
73266;SDS011;61495;53.400;7.608;2024-03-02T06:16:21;10.45;;;5.95;;
73266;SDS011;61495;53.400;7.608;2024-03-02T06:19:45;8.57;;;5.43;;
73266;SDS011;61495;53.400;7.608;2024-03-02T06:23:09;10.15;;;5.43;;
73266;SDS011;61495;53.400;7.608;2024-03-02T06:26:32;9.30;;;5.82;;
73266;SDS011;61495;53.400;7.608;2024-03-02T06:29:56;11.60;;;5.25;;
73266;SDS011;61495;53.400;7.608;2024-03-02T06:33:20;10.18;;;5.53;;
73266;SDS011;61495;53.400;7.608;2024-03-02T06:36:44;11.48;;;5.50;;
73266;SDS011;61495;53.400;7.608;2024-03-02T06:40:11;11.95;;;4.82;;
73266;SDS011;61495;53.400;7.608;2024-03-02T06:43:35;12.35;;;5.28;;
73266;SDS011;61495;53.400;7.608;2024-03-02T06:46:59;10.27;;;5.30;;
73266;SDS011;61495;53.400;7.608;2024-03-02T06:50:23;11.88;;;5.80;;
73266;SDS011;61495;53.400;7.608;2024-03-02T06:53:48;11.52;;;5.50;;
73266;SDS011;61495;53.400;7.608;2024-03-02T06:57:12;11.45;;;5.50;;
73266;SDS011;61495;53.400;7.608;2024-03-02T07:00:41;12.27;;;5.88;;
73266;SDS011;61495;53.400;7.608;2024-03-02T07:04:04;11.02;;;6.15;;
73266;SDS011;61495;53.400;7.608;2024-03-02T07:07:29;11.27;;;5.82;;
73266;SDS011;61495;53.400;7.608;2024-03-02T07:10:53;12.48;;;6.20;;
73266;SDS011;61495;53.400;7.608;2024-03-02T07:14:17;12.90;;;6.47;;
73266;SDS011;61495;53.400;7.608;2024-03-02T07:17:55;10.73;;;5.60;;
73266;SDS011;61495;53.400;7.608;2024-03-02T07:21:21;11.45;;;6.38;;
73266;SDS011;61495;53.400;7.608;2024-03-02T07:24:45;11.05;;;6.15;;
73266;SDS011;61495;53.400;7.608;2024-03-02T07:28:09;10.15;;;5.93;;
73266;SDS011;61495;53.400;7.608;2024-03-02T07:31:33;10.77;;;5.57;;
73266;SDS011;61495;53.400;7.608;2024-03-02T07:34:57;13.52;;;6.20;;
73266;SDS011;61495;53.400;7.608;2024-03-02T07:38:30;9.77;;;5.88;;
73266;SDS011;61495;53.400;7.608;2024-03-02T07:41:54;11.20;;;5.40;;
73266;SDS011;61495;53.400;7.608;2024-03-02T07:45:18;10.55;;;5.82;;
73266;SDS011;61495;53.400;7.608;2024-03-02T07:48:42;12.00;;;5.50;;
73266;SDS011;61495;53.400;7.608;2024-03-02T07:52:10;12.75;;;5.63;;
73266;SDS011;61495;53.400;7.608;2024-03-02T07:55:34;9.38;;;5.13;;
73266;SDS011;61495;53.400;7.608;2024-03-02T07:58:58;12.90;;;6.15;;
73266;SDS011;61495;53.400;7.608;2024-03-02T08:02:24;9.93;;;5.22;;
73266;SDS011;61495;53.400;7.608;2024-03-02T08:05:48;14.73;;;6.72;;
73266;SDS011;61495;53.400;7.608;2024-03-02T08:09:15;11.65;;;5.75;;
73266;SDS011;61495;53.400;7.608;2024-03-02T08:12:39;14.52;;;6.35;;
73266;SDS011;61495;53.400;7.608;2024-03-02T08:16:03;11.98;;;6.18;;
73266;SDS011;61495;53.400;7.608;2024-03-02T08:19:27;11.88;;;5.82;;
73266;SDS011;61495;53.400;7.608;2024-03-02T08:22:51;9.93;;;5.53;;
73266;SDS011;61495;53.400;7.608;2024-03-02T08:26:15;10.35;;;5.30;;
73266;SDS011;61495;53.400;7.608;2024-03-02T08:29:40;12.40;;;6.18;;
73266;SDS011;61495;53.400;7.608;2024-03-02T08:33:04;12.80;;;6.28;;
73266;SDS011;61495;53.400;7.608;2024-03-02T08:36:28;9.85;;;5.55;;
73266;SDS011;61495;53.400;7.608;2024-03-02T08:39:56;9.52;;;5.47;;
73266;SDS011;61495;53.400;7.608;2024-03-02T08:43:21;10.50;;;5.55;;
73266;SDS011;61495;53.400;7.608;2024-03-02T08:46:45;10.02;;;5.68;;
73266;SDS011;61495;53.400;7.608;2024-03-02T08:50:09;11.63;;;6.22;;
73266;SDS011;61495;53.400;7.608;2024-03-02T08:57:00;10.02;;;5.20;;
73266;SDS011;61495;53.400;7.608;2024-03-02T09:00:24;8.18;;;4.63;;
73266;SDS011;61495;53.400;7.608;2024-03-02T09:03:48;9.48;;;5.57;;
73266;SDS011;61495;53.400;7.608;2024-03-02T09:07:14;12.07;;;5.97;;
73266;SDS011;61495;53.400;7.608;2024-03-02T09:10:43;7.80;;;4.10;;
73266;SDS011;61495;53.400;7.608;2024-03-02T09:14:06;8.77;;;4.88;;
73266;SDS011;61495;53.400;7.608;2024-03-02T09:17:34;9.80;;;4.93;;
73266;SDS011;61495;53.400;7.608;2024-03-02T09:20:58;9.13;;;4.80;;
73266;SDS011;61495;53.400;7.608;2024-03-02T09:24:31;10.57;;;4.75;;
73266;SDS011;61495;53.400;7.608;2024-03-02T09:27:55;7.55;;;4.65;;
73266;SDS011;61495;53.400;7.608;2024-03-02T09:31:19;9.93;;;4.95;;
73266;SDS011;61495;53.400;7.608;2024-03-02T09:34:43;7.90;;;4.28;;
73266;SDS011;61495;53.400;7.608;2024-03-02T09:38:07;10.35;;;4.15;;
73266;SDS011;61495;53.400;7.608;2024-03-02T09:41:33;9.38;;;5.35;;
73266;SDS011;61495;53.400;7.608;2024-03-02T09:44:57;11.05;;;4.63;;
73266;SDS011;61495;53.400;7.608;2024-03-02T09:48:21;7.53;;;3.60;;
73266;SDS011;61495;53.400;7.608;2024-03-02T09:51:46;9.10;;;4.68;;
73266;SDS011;61495;53.400;7.608;2024-03-02T09:55:14;8.13;;;3.88;;
73266;SDS011;61495;53.400;7.608;2024-03-02T09:58:40;6.07;;;3.50;;
73266;SDS011;61495;53.400;7.608;2024-03-02T10:02:04;7.38;;;4.20;;
73266;SDS011;61495;53.400;7.608;2024-03-02T10:05:29;6.80;;;3.20;;
73266;SDS011;61495;53.400;7.608;2024-03-02T10:08:54;7.18;;;3.38;;
73266;SDS011;61495;53.400;7.608;2024-03-02T10:12:18;6.00;;;3.45;;
73266;SDS011;61495;53.400;7.608;2024-03-02T10:15:43;5.45;;;3.22;;
73266;SDS011;61495;53.400;7.608;2024-03-02T10:19:17;7.65;;;2.90;;
73266;SDS011;61495;53.400;7.608;2024-03-02T10:22:48;6.38;;;3.10;;
73266;SDS011;61495;53.400;7.608;2024-03-02T10:26:18;8.32;;;3.28;;
73266;SDS011;61495;53.400;7.608;2024-03-02T10:29:47;5.05;;;2.95;;
73266;SDS011;61495;53.400;7.608;2024-03-02T10:33:12;7.88;;;3.08;;
73266;SDS011;61495;53.400;7.608;2024-03-02T10:36:44;6.00;;;2.72;;
73266;SDS011;61495;53.400;7.608;2024-03-02T10:40:13;6.28;;;3.10;;
73266;SDS011;61495;53.400;7.608;2024-03-02T10:43:41;5.57;;;2.80;;
73266;SDS011;61495;53.400;7.608;2024-03-02T10:47:08;5.88;;;2.88;;
73266;SDS011;61495;53.400;7.608;2024-03-02T10:50:32;5.18;;;2.83;;
73266;SDS011;61495;53.400;7.608;2024-03-02T10:53:58;8.07;;;3.63;;
73266;SDS011;61495;53.400;7.608;2024-03-02T10:57:22;6.72;;;3.17;;
73266;SDS011;61495;53.400;7.608;2024-03-02T11:00:52;5.75;;;3.25;;
73266;SDS011;61495;53.400;7.608;2024-03-02T11:04:20;8.27;;;3.60;;
73266;SDS011;61495;53.400;7.608;2024-03-02T11:07:52;7.45;;;3.55;;
73266;SDS011;61495;53.400;7.608;2024-03-02T11:11:22;5.50;;;3.47;;
73266;SDS011;61495;53.400;7.608;2024-03-02T11:15:02;4.85;;;2.53;;
73266;SDS011;61495;53.400;7.608;2024-03-02T11:18:35;6.15;;;3.15;;
73266;SDS011;61495;53.400;7.608;2024-03-02T11:22:02;5.68;;;2.88;;
73266;SDS011;61495;53.400;7.608;2024-03-02T11:25:32;4.90;;;3.13;;
73266;SDS011;61495;53.400;7.608;2024-03-02T11:29:03;5.38;;;3.05;;
73266;SDS011;61495;53.400;7.608;2024-03-02T11:32:27;5.20;;;2.75;;
73266;SDS011;61495;53.400;7.608;2024-03-02T11:35:52;5.88;;;3.08;;
73266;SDS011;61495;53.400;7.608;2024-03-02T11:39:22;6.35;;;2.85;;
73266;SDS011;61495;53.400;7.608;2024-03-02T11:42:52;5.57;;;3.15;;
73266;SDS011;61495;53.400;7.608;2024-03-02T11:46:16;5.45;;;2.75;;
73266;SDS011;61495;53.400;7.608;2024-03-02T11:49:42;5.28;;;2.33;;
73266;SDS011;61495;53.400;7.608;2024-03-02T11:53:08;5.18;;;3.00;;
73266;SDS011;61495;53.400;7.608;2024-03-02T11:56:32;5.68;;;2.40;;
73266;SDS011;61495;53.400;7.608;2024-03-02T11:59:56;9.75;;;2.80;;
73266;SDS011;61495;53.400;7.608;2024-03-02T12:06:58;5.80;;;2.63;;
73266;SDS011;61495;53.400;7.608;2024-03-02T12:10:28;6.50;;;3.13;;
73266;SDS011;61495;53.400;7.608;2024-03-02T12:13:52;5.35;;;2.85;;
73266;SDS011;61495;53.400;7.608;2024-03-02T12:17:18;5.03;;;2.90;;
73266;SDS011;61495;53.400;7.608;2024-03-02T12:20:42;4.90;;;3.17;;
73266;SDS011;61495;53.400;7.608;2024-03-02T12:24:06;5.75;;;2.90;;
73266;SDS011;61495;53.400;7.608;2024-03-02T12:27:30;4.93;;;2.30;;
73266;SDS011;61495;53.400;7.608;2024-03-02T12:30:54;6.45;;;2.90;;
73266;SDS011;61495;53.400;7.608;2024-03-02T12:34:18;6.70;;;2.42;;
73266;SDS011;61495;53.400;7.608;2024-03-02T12:37:48;4.35;;;2.30;;
73266;SDS011;61495;53.400;7.608;2024-03-02T12:41:14;4.90;;;2.28;;
73266;SDS011;61495;53.400;7.608;2024-03-02T12:44:39;4.18;;;1.83;;
73266;SDS011;61495;53.400;7.608;2024-03-02T12:48:04;3.30;;;1.63;;
73266;SDS011;61495;53.400;7.608;2024-03-02T12:51:38;3.60;;;1.80;;
73266;SDS011;61495;53.400;7.608;2024-03-02T12:55:04;4.13;;;1.60;;
73266;SDS011;61495;53.400;7.608;2024-03-02T12:58:29;3.75;;;2.00;;
73266;SDS011;61495;53.400;7.608;2024-03-02T13:01:53;3.65;;;1.63;;
73266;SDS011;61495;53.400;7.608;2024-03-02T13:05:18;3.50;;;1.80;;
73266;SDS011;61495;53.400;7.608;2024-03-02T13:08:57;3.40;;;1.48;;
73266;SDS011;61495;53.400;7.608;2024-03-02T13:12:23;4.85;;;1.58;;
73266;SDS011;61495;53.400;7.608;2024-03-02T13:15:48;3.88;;;2.22;;
73266;SDS011;61495;53.400;7.608;2024-03-02T13:19:13;4.00;;;1.92;;
73266;SDS011;61495;53.400;7.608;2024-03-02T13:22:39;5.10;;;2.47;;
73266;SDS011;61495;53.400;7.608;2024-03-02T13:26:03;5.13;;;2.80;;
73266;SDS011;61495;53.400;7.608;2024-03-02T13:29:29;5.43;;;2.58;;
73266;SDS011;61495;53.400;7.608;2024-03-02T13:32:52;4.65;;;2.33;;
73266;SDS011;61495;53.400;7.608;2024-03-02T13:36:16;3.97;;;2.47;;
73266;SDS011;61495;53.400;7.608;2024-03-02T13:39:55;4.53;;;2.28;;
73266;SDS011;61495;53.400;7.608;2024-03-02T13:43:19;4.60;;;2.40;;
73266;SDS011;61495;53.400;7.608;2024-03-02T13:46:46;4.85;;;2.40;;
73266;SDS011;61495;53.400;7.608;2024-03-02T13:50:10;4.97;;;2.90;;
73266;SDS011;61495;53.400;7.608;2024-03-02T13:53:34;5.97;;;2.83;;
73266;SDS011;61495;53.400;7.608;2024-03-02T13:57:01;6.32;;;3.30;;
73266;SDS011;61495;53.400;7.608;2024-03-02T14:00:25;4.40;;;2.40;;
73266;SDS011;61495;53.400;7.608;2024-03-02T14:03:49;4.68;;;2.50;;
73266;SDS011;61495;53.400;7.608;2024-03-02T14:07:14;5.22;;;2.65;;
73266;SDS011;61495;53.400;7.608;2024-03-02T14:10:42;6.97;;;3.22;;
73266;SDS011;61495;53.400;7.608;2024-03-02T14:14:06;5.10;;;2.78;;
73266;SDS011;61495;53.400;7.608;2024-03-02T14:17:30;8.25;;;2.85;;
73266;SDS011;61495;53.400;7.608;2024-03-02T14:20:54;7.30;;;3.17;;
73266;SDS011;61495;53.400;7.608;2024-03-02T14:24:18;7.40;;;3.17;;
73266;SDS011;61495;53.400;7.608;2024-03-02T14:27:42;7.10;;;3.00;;
73266;SDS011;61495;53.400;7.608;2024-03-02T14:31:06;6.20;;;3.50;;
73266;SDS011;61495;53.400;7.608;2024-03-02T14:34:30;6.00;;;3.25;;
73266;SDS011;61495;53.400;7.608;2024-03-02T14:37:54;35.75;;;4.03;;
73266;SDS011;61495;53.400;7.608;2024-03-02T14:41:18;5.10;;;2.90;;
73266;SDS011;61495;53.400;7.608;2024-03-02T14:44:42;5.95;;;3.50;;
73266;SDS011;61495;53.400;7.608;2024-03-02T14:48:07;5.10;;;3.67;;
73266;SDS011;61495;53.400;7.608;2024-03-02T14:51:33;5.70;;;3.00;;
73266;SDS011;61495;53.400;7.608;2024-03-02T14:54:57;7.95;;;3.60;;
73266;SDS011;61495;53.400;7.608;2024-03-02T14:58:21;6.50;;;3.67;;
73266;SDS011;61495;53.400;7.608;2024-03-02T15:01:45;6.50;;;3.00;;
73266;SDS011;61495;53.400;7.608;2024-03-02T15:05:09;5.97;;;3.75;;
73266;SDS011;61495;53.400;7.608;2024-03-02T15:08:42;4.63;;;2.90;;
73266;SDS011;61495;53.400;7.608;2024-03-02T15:12:06;5.78;;;3.15;;
73266;SDS011;61495;53.400;7.608;2024-03-02T15:15:30;5.40;;;3.10;;
73266;SDS011;61495;53.400;7.608;2024-03-02T15:18:55;5.20;;;2.70;;
73266;SDS011;61495;53.400;7.608;2024-03-02T15:22:18;4.70;;;2.58;;
73266;SDS011;61495;53.400;7.608;2024-03-02T15:25:42;5.78;;;2.70;;
73266;SDS011;61495;53.400;7.608;2024-03-02T15:29:09;5.18;;;2.78;;
73266;SDS011;61495;53.400;7.608;2024-03-02T15:32:36;6.40;;;2.95;;
73266;SDS011;61495;53.400;7.608;2024-03-02T15:36:02;5.53;;;2.95;;
73266;SDS011;61495;53.400;7.608;2024-03-02T15:39:28;5.60;;;3.00;;
73266;SDS011;61495;53.400;7.608;2024-03-02T15:46:17;5.65;;;2.47;;
73266;SDS011;61495;53.400;7.608;2024-03-02T15:49:41;6.75;;;3.45;;
73266;SDS011;61495;53.400;7.608;2024-03-02T15:53:05;5.32;;;3.00;;
73266;SDS011;61495;53.400;7.608;2024-03-02T15:56:31;6.10;;;2.60;;
73266;SDS011;61495;53.400;7.608;2024-03-02T15:59:55;5.03;;;2.53;;
73266;SDS011;61495;53.400;7.608;2024-03-02T16:03:19;6.97;;;3.22;;
73266;SDS011;61495;53.400;7.608;2024-03-02T16:06:43;5.32;;;3.20;;
73266;SDS011;61495;53.400;7.608;2024-03-02T16:10:16;5.80;;;3.22;;
73266;SDS011;61495;53.400;7.608;2024-03-02T16:13:40;6.43;;;2.88;;
73266;SDS011;61495;53.400;7.608;2024-03-02T16:17:04;5.88;;;2.95;;
73266;SDS011;61495;53.400;7.608;2024-03-02T16:20:28;6.00;;;2.72;;
73266;SDS011;61495;53.400;7.608;2024-03-02T16:23:52;6.35;;;3.65;;
73266;SDS011;61495;53.400;7.608;2024-03-02T16:27:16;6.75;;;3.53;;
73266;SDS011;61495;53.400;7.608;2024-03-02T16:30:40;6.65;;;3.40;;
73266;SDS011;61495;53.400;7.608;2024-03-02T16:34:04;5.82;;;3.40;;
73266;SDS011;61495;53.400;7.608;2024-03-02T16:37:28;7.97;;;3.60;;
73266;SDS011;61495;53.400;7.608;2024-03-02T16:40:53;6.00;;;3.20;;
73266;SDS011;61495;53.400;7.608;2024-03-02T16:44:17;4.90;;;3.03;;
73266;SDS011;61495;53.400;7.608;2024-03-02T16:47:41;7.78;;;3.40;;
73266;SDS011;61495;53.400;7.608;2024-03-02T16:51:04;7.38;;;3.90;;
73266;SDS011;61495;53.400;7.608;2024-03-02T16:54:28;7.45;;;3.88;;
73266;SDS011;61495;53.400;7.608;2024-03-02T16:57:52;5.03;;;3.10;;
73266;SDS011;61495;53.400;7.608;2024-03-02T17:01:16;6.97;;;3.95;;
73266;SDS011;61495;53.400;7.608;2024-03-02T17:04:40;6.22;;;3.53;;
73266;SDS011;61495;53.400;7.608;2024-03-02T17:08:09;7.70;;;3.53;;
73266;SDS011;61495;53.400;7.608;2024-03-02T17:11:33;7.57;;;4.15;;
73266;SDS011;61495;53.400;7.608;2024-03-02T17:14:57;7.45;;;3.83;;
73266;SDS011;61495;53.400;7.608;2024-03-02T17:18:21;8.88;;;3.88;;
73266;SDS011;61495;53.400;7.608;2024-03-02T17:21:45;9.15;;;5.07;;
73266;SDS011;61495;53.400;7.608;2024-03-02T17:25:09;7.90;;;4.75;;
73266;SDS011;61495;53.400;7.608;2024-03-02T17:28:33;7.82;;;4.35;;
73266;SDS011;61495;53.400;7.608;2024-03-02T17:31:58;7.38;;;3.60;;
73266;SDS011;61495;53.400;7.608;2024-03-02T17:35:22;6.90;;;3.65;;
73266;SDS011;61495;53.400;7.608;2024-03-02T17:38:49;7.63;;;4.70;;
73266;SDS011;61495;53.400;7.608;2024-03-02T17:42:13;8.60;;;4.90;;
73266;SDS011;61495;53.400;7.608;2024-03-02T17:45:37;8.68;;;4.90;;
73266;SDS011;61495;53.400;7.608;2024-03-02T17:49:02;9.68;;;5.10;;
73266;SDS011;61495;53.400;7.608;2024-03-02T17:52:25;7.97;;;4.53;;
73266;SDS011;61495;53.400;7.608;2024-03-02T17:55:49;8.80;;;5.40;;
73266;SDS011;61495;53.400;7.608;2024-03-02T17:59:13;8.65;;;4.72;;
73266;SDS011;61495;53.400;7.608;2024-03-02T18:02:39;10.25;;;5.35;;
73266;SDS011;61495;53.400;7.608;2024-03-02T18:06:04;11.27;;;6.00;;
73266;SDS011;61495;53.400;7.608;2024-03-02T18:09:34;11.35;;;6.65;;
73266;SDS011;61495;53.400;7.608;2024-03-02T18:12:58;9.10;;;5.40;;
73266;SDS011;61495;53.400;7.608;2024-03-02T18:16:23;11.27;;;5.90;;
73266;SDS011;61495;53.400;7.608;2024-03-02T18:19:50;10.85;;;6.00;;
73266;SDS011;61495;53.400;7.608;2024-03-02T18:23:14;10.52;;;5.15;;
73266;SDS011;61495;53.400;7.608;2024-03-02T18:26:38;11.85;;;6.28;;
73266;SDS011;61495;53.400;7.608;2024-03-02T18:30:04;11.30;;;5.53;;
73266;SDS011;61495;53.400;7.608;2024-03-02T18:33:29;9.93;;;4.75;;
73266;SDS011;61495;53.400;7.608;2024-03-02T18:36:53;9.38;;;5.05;;
73266;SDS011;61495;53.400;7.608;2024-03-02T18:40:16;10.52;;;4.40;;
73266;SDS011;61495;53.400;7.608;2024-03-02T18:43:40;8.35;;;4.90;;
73266;SDS011;61495;53.400;7.608;2024-03-02T18:47:06;8.73;;;5.60;;
73266;SDS011;61495;53.400;7.608;2024-03-02T18:50:30;9.05;;;4.97;;
73266;SDS011;61495;53.400;7.608;2024-03-02T18:53:55;8.27;;;5.05;;
73266;SDS011;61495;53.400;7.608;2024-03-02T18:57:19;9.57;;;4.85;;
73266;SDS011;61495;53.400;7.608;2024-03-02T19:00:43;9.35;;;4.75;;
73266;SDS011;61495;53.400;7.608;2024-03-02T19:04:07;10.98;;;4.65;;
73266;SDS011;61495;53.400;7.608;2024-03-02T19:07:34;8.40;;;4.80;;
73266;SDS011;61495;53.400;7.608;2024-03-02T19:10:59;8.48;;;4.55;;
73266;SDS011;61495;53.400;7.608;2024-03-02T19:14:23;8.07;;;5.10;;
73266;SDS011;61495;53.400;7.608;2024-03-02T19:17:47;6.78;;;4.30;;
73266;SDS011;61495;53.400;7.608;2024-03-02T19:21:11;7.38;;;4.07;;
73266;SDS011;61495;53.400;7.608;2024-03-02T19:24:35;8.80;;;4.82;;
73266;SDS011;61495;53.400;7.608;2024-03-02T19:27:59;7.88;;;4.53;;
73266;SDS011;61495;53.400;7.608;2024-03-02T19:31:23;9.23;;;4.15;;
73266;SDS011;61495;53.400;7.608;2024-03-02T19:34:48;7.70;;;4.72;;
73266;SDS011;61495;53.400;7.608;2024-03-02T19:38:12;7.80;;;4.13;;
73266;SDS011;61495;53.400;7.608;2024-03-02T19:41:36;7.28;;;4.28;;
73266;SDS011;61495;53.400;7.608;2024-03-02T19:45:00;7.93;;;4.68;;
73266;SDS011;61495;53.400;7.608;2024-03-02T19:48:24;9.88;;;4.18;;
73266;SDS011;61495;53.400;7.608;2024-03-02T19:51:49;9.05;;;5.28;;
73266;SDS011;61495;53.400;7.608;2024-03-02T19:55:13;8.25;;;4.10;;
73266;SDS011;61495;53.400;7.608;2024-03-02T19:58:41;8.45;;;4.40;;
73266;SDS011;61495;53.400;7.608;2024-03-02T20:02:05;8.32;;;4.10;;
73266;SDS011;61495;53.400;7.608;2024-03-02T20:05:29;7.90;;;5.18;;
73266;SDS011;61495;53.400;7.608;2024-03-02T20:08:58;11.23;;;4.32;;
73266;SDS011;61495;53.400;7.608;2024-03-02T20:12:22;6.47;;;3.13;;
73266;SDS011;61495;53.400;7.608;2024-03-02T20:15:47;7.30;;;3.90;;
73266;SDS011;61495;53.400;7.608;2024-03-02T20:19:11;7.70;;;3.88;;
73266;SDS011;61495;53.400;7.608;2024-03-02T20:22:37;8.30;;;4.30;;
73266;SDS011;61495;53.400;7.608;2024-03-02T20:26:07;6.95;;;4.13;;
73266;SDS011;61495;53.400;7.608;2024-03-02T20:29:33;9.30;;;4.22;;
73266;SDS011;61495;53.400;7.608;2024-03-02T20:32:57;6.90;;;4.10;;
73266;SDS011;61495;53.400;7.608;2024-03-02T20:36:21;6.95;;;4.28;;
73266;SDS011;61495;53.400;7.608;2024-03-02T20:40:13;8.25;;;4.10;;
73266;SDS011;61495;53.400;7.608;2024-03-02T20:43:40;9.60;;;4.15;;
73266;SDS011;61495;53.400;7.608;2024-03-02T20:47:04;8.18;;;4.18;;
73266;SDS011;61495;53.400;7.608;2024-03-02T20:50:28;8.23;;;4.38;;
73266;SDS011;61495;53.400;7.608;2024-03-02T20:53:56;7.57;;;4.78;;
73266;SDS011;61495;53.400;7.608;2024-03-02T20:57:21;8.10;;;4.03;;
73266;SDS011;61495;53.400;7.608;2024-03-02T21:00:45;7.97;;;4.28;;
73266;SDS011;61495;53.400;7.608;2024-03-02T21:04:11;8.68;;;4.50;;
73266;SDS011;61495;53.400;7.608;2024-03-02T21:07:37;9.10;;;4.45;;